Time;durP1;ratioP1;P1;durP2;ratioP2;P2;SDS_P1;SDS_P2;PMS_P1;PMS_P2;Temp;Humidity;BMP_temperature;BMP_pressure;BME280_temperature;BME280_humidity;BME280_pressure;Samples;Min_cycle;Max_cycle;Signal;HPM_P1;HPM_P2
2023/05/21 00:02:14;;;;;;;2.08;1.95;;;;;;;;;;6235834;28;20364;-79
2023/05/21 00:05:20;;;;;;;3.65;2.08;;;;;;;;;;6236744;28;20542;-79
2023/05/21 00:08:25;;;;;;;3.10;2.30;;;;;;;;;;6237581;28;20299;-76
2023/05/21 00:11:32;;;;;;;2.13;2.03;;;;;;;;;;6229928;28;20293;-76
2023/05/21 00:14:38;;;;;;;2.65;2.53;;;;;;;;;;6213696;28;20297;-79
2023/05/21 00:17:44;;;;;;;2.13;1.95;;;;;;;;;;6213728;28;20605;-78
2023/05/21 00:20:49;;;;;;;2.13;2.00;;;;;;;;;;6213537;28;20301;-77
2023/05/21 00:23:55;;;;;;;1.90;1.90;;;;;;;;;;6211899;28;20301;-78
2023/05/21 00:27:01;;;;;;;2.78;2.33;;;;;;;;;;6213675;28;20337;-78
2023/05/21 00:30:09;;;;;;;2.17;2.17;;;;;;;;;;6213726;28;20605;-78
2023/05/21 00:33:14;;;;;;;4.22;2.40;;;;;;;;;;6213580;28;20300;-78
2023/05/21 00:36:22;;;;;;;2.15;1.92;;;;;;;;;;6213965;28;20301;-79
2023/05/21 00:39:27;;;;;;;2.47;2.38;;;;;;;;;;6229000;28;20292;-77
2023/05/21 00:42:38;;;;;;;2.55;2.38;;;;;;;;;;6236569;28;20312;-77
2023/05/21 00:45:45;;;;;;;2.97;2.38;;;;;;;;;;6237834;28;20308;-78
2023/05/21 00:48:51;;;;;;;2.10;2.00;;;;;;;;;;6237933;28;20312;-78
2023/05/21 00:51:56;;;;;;;2.10;1.98;;;;;;;;;;6236977;28;20296;-78
2023/05/21 00:55:01;;;;;;;2.25;2.05;;;;;;;;;;6236271;28;20295;-79
2023/05/21 00:58:08;;;;;;;2.15;2.00;;;;;;;;;;6236392;28;20308;-77
2023/05/21 01:01:14;;;;;;;3.53;2.50;;;;;;;;;;6235910;28;20300;-77
2023/05/21 01:04:20;;;;;;;6.18;2.33;;;;;;;;;;6236464;28;20292;-79
2023/05/21 01:07:28;;;;;;;2.10;2.10;;;;;;;;;;6236357;28;20275;-78
2023/05/21 01:10:33;;;;;;;7.68;2.15;;;;;;;;;;6235350;28;20301;-77
2023/05/21 01:13:40;;;;;;;4.88;2.30;;;;;;;;;;6210219;28;20278;-77
2023/05/21 01:16:48;;;;;;;4.20;2.22;;;;;;;;;;6210929;28;20292;-77
2023/05/21 01:19:53;;;;;;;5.10;2.22;;;;;;;;;;6212108;28;20436;-77
2023/05/21 01:23:00;;;;;;;6.00;2.40;;;;;;;;;;6211337;28;20289;-77
2023/05/21 01:26:07;;;;;;;3.70;2.20;;;;;;;;;;6210925;28;20304;-78
2023/05/21 01:29:13;;;;;;;2.22;2.13;;;;;;;;;;6211840;28;20300;-78
2023/05/21 01:32:24;;;;;;;2.20;1.83;;;;;;;;;;6212566;28;20552;-78
2023/05/21 01:35:32;;;;;;;2.95;2.10;;;;;;;;;;6210158;28;20294;-77
2023/05/21 01:38:42;;;;;;;2.40;2.30;;;;;;;;;;6211022;28;20458;-78
2023/05/21 01:41:49;;;;;;;2.33;2.13;;;;;;;;;;6212219;28;20297;-77
2023/05/21 01:44:56;;;;;;;2.55;2.35;;;;;;;;;;6212084;28;20439;-79
2023/05/21 01:48:01;;;;;;;3.83;2.20;;;;;;;;;;6211276;28;20296;-77
2023/05/21 01:51:07;;;;;;;7.63;2.33;;;;;;;;;;6209770;28;20590;-80
2023/05/21 01:54:13;;;;;;;3.80;2.42;;;;;;;;;;6211630;28;20293;-77
2023/05/21 01:57:18;;;;;;;3.05;2.10;;;;;;;;;;6210521;28;20475;-77
2023/05/21 02:00:27;;;;;;;2.15;1.90;;;;;;;;;;6210213;28;20600;-79
2023/05/21 02:03:32;;;;;;;2.47;2.30;;;;;;;;;;6194032;28;20293;-79
2023/05/21 02:06:38;;;;;;;2.28;2.17;;;;;;;;;;6217169;28;20601;-78
2023/05/21 02:09:45;;;;;;;2.75;2.00;;;;;;;;;;6209247;28;20522;-79
2023/05/21 02:12:50;;;;;;;11.57;2.15;;;;;;;;;;6227881;28;20561;-77
2023/05/21 02:15:55;;;;;;;2.20;2.00;;;;;;;;;;6233962;28;20297;-78
2023/05/21 02:19:03;;;;;;;2.47;2.30;;;;;;;;;;6233427;28;20300;-79
2023/05/21 02:22:08;;;;;;;2.28;2.05;;;;;;;;;;6234959;28;20303;-77
2023/05/21 02:25:17;;;;;;;2.38;2.28;;;;;;;;;;6233753;28;20444;-76
2023/05/21 02:28:22;;;;;;;3.08;2.00;;;;;;;;;;6234067;28;20295;-77
2023/05/21 02:31:28;;;;;;;2.53;2.22;;;;;;;;;;6232900;28;20553;-78
2023/05/21 02:34:35;;;;;;;2.20;2.10;;;;;;;;;;6234291;28;20296;-77
2023/05/21 02:37:40;;;;;;;2.05;2.03;;;;;;;;;;6231001;28;20281;-77
2023/05/21 02:40:47;;;;;;;2.40;2.17;;;;;;;;;;6208773;28;20312;-78
2023/05/21 02:43:52;;;;;;;2.10;2.00;;;;;;;;;;6209975;28;20297;-77
2023/05/21 02:46:57;;;;;;;2.10;2.10;;;;;;;;;;6209279;28;20581;-77
2023/05/21 02:50:03;;;;;;;1.98;1.98;;;;;;;;;;6208962;28;20300;-78
2023/05/21 02:53:09;;;;;;;3.20;2.30;;;;;;;;;;6209433;28;20300;-76
2023/05/21 02:56:16;;;;;;;2.55;2.38;;;;;;;;;;6208971;28;20289;-75
2023/05/21 02:59:21;;;;;;;2.28;2.17;;;;;;;;;;6211379;28;20296;-76
2023/05/21 03:02:27;;;;;;;2.92;2.20;;;;;;;;;;6213759;28;20292;-77
2023/05/21 03:05:32;;;;;;;2.03;1.90;;;;;;;;;;6225940;28;20312;-78
2023/05/21 03:08:38;;;;;;;2.20;2.03;;;;;;;;;;6209642;28;20321;-78
2023/05/21 03:11:45;;;;;;;1.98;1.90;;;;;;;;;;6209599;28;20316;-77
2023/05/21 03:14:51;;;;;;;2.60;2.15;;;;;;;;;;6209761;28;20293;-77
2023/05/21 03:17:57;;;;;;;2.42;2.38;;;;;;;;;;6208399;28;20293;-77
2023/05/21 03:21:03;;;;;;;2.58;2.38;;;;;;;;;;6231508;28;20300;-76
2023/05/21 03:24:12;;;;;;;2.22;2.13;;;;;;;;;;6234395;28;20380;-78
2023/05/21 03:27:18;;;;;;;2.45;2.25;;;;;;;;;;6234056;28;20292;-78
2023/05/21 03:30:25;;;;;;;2.25;2.15;;;;;;;;;;6240904;28;20284;-78
2023/05/21 03:33:51;;;;;;;4.35;1.92;;;;;;;;;;6240797;28;20304;-77
2023/05/21 03:37:02;;;;;;;2.47;2.28;;;;;;;;;;6227065;28;20297;-78
2023/05/21 03:40:09;;;;;;;2.35;2.13;;;;;;;;;;6241637;28;20296;-78
2023/05/21 03:43:16;;;;;;;2.10;2.10;;;;;;;;;;6237768;28;20297;-78
2023/05/21 03:46:22;;;;;;;2.10;2.10;;;;;;;;;;6236934;28;20304;-80
2023/05/21 03:49:47;;;;;;;2.03;2.03;;;;;;;;;;6237577;28;20300;-77
2023/05/21 03:52:52;;;;;;;2.08;2.08;;;;;;;;;;6237534;28;20292;-77
2023/05/21 03:55:57;;;;;;;3.75;2.30;;;;;;;;;;6238807;28;20304;-77
2023/05/21 03:59:04;;;;;;;2.05;1.95;;;;;;;;;;6237340;28;20296;-76
2023/05/21 04:02:10;;;;;;;2.17;2.13;;;;;;;;;;6237632;28;20592;-77
2023/05/21 04:05:15;;;;;;;1.90;1.90;;;;;;;;;;6237142;28;20595;-78
2023/05/21 04:08:20;;;;;;;2.20;2.15;;;;;;;;;;6237833;28;20292;-79
2023/05/21 04:11:26;;;;;;;1.90;1.90;;;;;;;;;;6221384;28;20292;-76
2023/05/21 04:14:33;;;;;;;2.20;2.10;;;;;;;;;;6214216;28;20496;-78
2023/05/21 04:17:38;;;;;;;1.90;1.80;;;;;;;;;;6213220;28;20293;-78
2023/05/21 04:20:44;;;;;;;3.88;2.63;;;;;;;;;;6212363;28;20336;-77
2023/05/21 04:23:49;;;;;;;2.15;2.05;;;;;;;;;;6212537;28;20296;-75
2023/05/21 04:27:08;;;;;;;2.25;1.98;;;;;;;;;;6212996;28;20294;-76
2023/05/21 04:30:15;;;;;;;1.95;1.95;;;;;;;;;;6212822;28;20301;-79
2023/05/21 04:33:21;;;;;;;2.13;1.90;;;;;;;;;;6212566;28;20296;-77
2023/05/21 04:36:28;;;;;;;2.13;2.03;;;;;;;;;;6212548;28;20297;-77
2023/05/21 04:39:35;;;;;;;2.30;2.20;;;;;;;;;;6232204;28;20304;-77
2023/05/21 04:42:40;;;;;;;2.15;2.05;;;;;;;;;;6238084;28;20300;-76
2023/05/21 04:45:48;;;;;;;3.00;2.40;;;;;;;;;;6237678;28;20296;-78
2023/05/21 04:48:54;;;;;;;2.47;2.35;;;;;;;;;;6234951;28;20296;-77
2023/05/21 04:52:00;;;;;;;1.95;1.95;;;;;;;;;;6237040;28;20480;-77
2023/05/21 04:55:06;;;;;;;2.70;2.40;;;;;;;;;;6236150;28;20296;-79
2023/05/21 04:58:13;;;;;;;2.13;1.95;;;;;;;;;;6236034;28;20308;-79
2023/05/21 05:01:21;;;;;;;2.30;2.30;;;;;;;;;;6236167;28;20293;-79
2023/05/21 05:04:26;;;;;;;3.20;2.33;;;;;;;;;;6228526;28;20310;-77
2023/05/21 05:07:32;;;;;;;2.10;2.00;;;;;;;;;;6187744;28;20273;-77
2023/05/21 05:10:37;;;;;;;6.53;2.08;;;;;;;;;;6206326;28;20300;-77
2023/05/21 05:13:42;;;;;;;3.35;2.30;;;;;;;;;;6236704;28;20508;-77
2023/05/21 05:16:49;;;;;;;2.22;2.20;;;;;;;;;;6235808;28;20288;-78
2023/05/21 05:19:54;;;;;;;1.90;1.90;;;;;;;;;;6235185;28;20305;-78
2023/05/21 05:23:00;;;;;;;2.20;2.05;;;;;;;;;;6236847;28;20300;-76
2023/05/21 05:26:05;;;;;;;2.65;2.13;;;;;;;;;;6235418;28;20300;-77
2023/05/21 05:29:11;;;;;;;1.95;1.88;;;;;;;;;;6235158;28;20308;-78
2023/05/21 05:32:18;;;;;;;2.40;2.20;;;;;;;;;;6235480;28;20300;-77
2023/05/21 05:35:23;;;;;;;2.53;2.33;;;;;;;;;;6235051;28;20308;-78
2023/05/21 05:38:28;;;;;;;1.92;1.92;;;;;;;;;;6227177;28;20316;-76
2023/05/21 05:41:33;;;;;;;2.65;2.05;;;;;;;;;;6211452;28;20304;-78
2023/05/21 05:44:39;;;;;;;4.72;2.13;;;;;;;;;;6210384;28;20593;-77
2023/05/21 05:47:46;;;;;;;1.92;1.92;;;;;;;;;;6210206;28;20293;-77
2023/05/21 05:50:53;;;;;;;2.63;1.70;;;;;;;;;;6210884;28;20297;-76
2023/05/21 05:54:01;;;;;;;2.00;1.92;;;;;;;;;;6210002;28;20297;-77
2023/05/21 05:57:07;;;;;;;2.00;1.88;;;;;;;;;;6210642;28;20297;-78
2023/05/21 06:00:16;;;;;;;1.90;1.80;;;;;;;;;;6209984;28;20317;-77
2023/05/21 06:03:28;;;;;;;1.98;1.83;;;;;;;;;;6209678;28;20384;-77
2023/05/21 06:06:35;;;;;;;2.03;1.92;;;;;;;;;;6210931;28;20313;-77
2023/05/21 06:09:40;;;;;;;1.98;1.98;;;;;;;;;;6212791;28;20297;-78
2023/05/21 06:12:46;;;;;;;1.85;1.58;;;;;;;;;;6234532;28;20465;-77
2023/05/21 06:15:52;;;;;;;1.67;1.67;;;;;;;;;;6234392;28;20293;-78
2023/05/21 06:18:59;;;;;;;1.73;1.70;;;;;;;;;;6234204;28;20457;-76
2023/05/21 06:22:04;;;;;;;1.77;1.77;;;;;;;;;;6234375;28;20315;-78
2023/05/21 06:25:10;;;;;;;2.08;1.80;;;;;;;;;;6233935;28;20375;-77
2023/05/21 06:28:16;;;;;;;2.05;1.70;;;;;;;;;;6235417;28;20288;-77
2023/05/21 06:31:21;;;;;;;1.80;1.70;;;;;;;;;;6234167;28;20300;-78
2023/05/21 06:34:28;;;;;;;2.65;1.70;;;;;;;;;;6234050;28;20300;-78
2023/05/21 06:37:33;;;;;;;1.38;1.30;;;;;;;;;;6231858;28;20289;-77
2023/05/21 06:40:39;;;;;;;1.77;1.67;;;;;;;;;;6209046;28;20313;-77
2023/05/21 06:43:49;;;;;;;1.52;1.50;;;;;;;;;;6209087;28;20304;-77
2023/05/21 06:47:09;;;;;;;1.65;1.58;;;;;;;;;;6210722;28;20301;-77
2023/05/21 06:50:16;;;;;;;2.22;1.83;;;;;;;;;;6208869;28;20378;-78
2023/05/21 06:53:21;;;;;;;1.77;1.65;;;;;;;;;;6208630;28;20312;-78
2023/05/21 06:56:27;;;;;;;1.55;1.45;;;;;;;;;;6209212;28;20477;-78
2023/05/21 06:59:32;;;;;;;2.20;2.10;;;;;;;;;;6210193;28;20364;-77
2023/05/21 07:02:38;;;;;;;1.58;1.50;;;;;;;;;;6209379;28;20301;-79
2023/05/21 07:05:44;;;;;;;2.15;1.90;;;;;;;;;;6207662;28;20585;-77
2023/05/21 07:08:50;;;;;;;1.63;1.52;;;;;;;;;;6208675;28;20298;-77
2023/05/21 07:11:55;;;;;;;1.73;1.67;;;;;;;;;;6231529;28;20485;-77
2023/05/21 07:15:00;;;;;;;1.77;1.52;;;;;;;;;;6239394;28;20296;-79
2023/05/21 07:18:06;;;;;;;2.70;1.70;;;;;;;;;;6238009;28;20351;-79
2023/05/21 07:21:13;;;;;;;1.50;1.50;;;;;;;;;;6238327;28;20312;-77
2023/05/21 07:24:18;;;;;;;3.45;1.63;;;;;;;;;;6238064;28;20296;-78
2023/05/21 07:27:24;;;;;;;6.72;1.55;;;;;;;;;;6238235;28;20472;-78
2023/05/21 07:30:31;;;;;;;1.80;1.60;;;;;;;;;;6238069;28;20296;-77
2023/05/21 07:33:38;;;;;;;1.60;1.50;;;;;;;;;;6237704;28;20299;-78
2023/05/21 07:36:47;;;;;;;1.50;1.40;;;;;;;;;;6238418;28;20295;-78
2023/05/21 07:39:54;;;;;;;4.82;1.60;;;;;;;;;;6216755;28;20373;-78
2023/05/21 07:42:59;;;;;;;1.38;1.38;;;;;;;;;;6213244;28;20361;-78
2023/05/21 07:46:07;;;;;;;3.28;1.50;;;;;;;;;;6213855;28;20294;-78
2023/05/21 07:49:15;;;;;;;1.50;1.50;;;;;;;;;;6213064;28;20316;-79
2023/05/21 07:52:23;;;;;;;1.52;1.42;;;;;;;;;;6213318;28;20297;-77
2023/05/21 07:55:28;;;;;;;2.40;1.67;;;;;;;;;;6213807;28;20309;-78
2023/05/21 07:58:35;;;;;;;1.30;1.30;;;;;;;;;;6213097;28;20313;-77
2023/05/21 08:01:40;;;;;;;1.40;1.20;;;;;;;;;;6213446;28;20289;-77
2023/05/21 08:04:46;;;;;;;1.50;1.40;;;;;;;;;;6212583;28;20313;-77
2023/05/21 08:07:53;;;;;;;2.72;1.33;;;;;;;;;;6212606;28;20380;-77
2023/05/21 08:10:59;;;;;;;1.35;1.35;;;;;;;;;;6225218;28;20288;-78
2023/05/21 08:14:05;;;;;;;9.05;1.80;;;;;;;;;;6236895;28;20301;-77
2023/05/21 08:17:11;;;;;;;1.30;1.30;;;;;;;;;;6237528;28;20319;-78
2023/05/21 08:20:16;;;;;;;2.28;1.60;;;;;;;;;;6237334;28;20288;-78
2023/05/21 08:23:24;;;;;;;1.50;1.50;;;;;;;;;;6237746;28;20655;-77
2023/05/21 08:26:31;;;;;;;3.05;1.40;;;;;;;;;;6237203;28;20292;-77
2023/05/21 08:29:37;;;;;;;1.58;1.58;;;;;;;;;;6237464;28;20296;-77
2023/05/21 08:32:43;;;;;;;5.70;1.60;;;;;;;;;;6237284;28;20583;-77
2023/05/21 08:35:49;;;;;;;2.65;1.70;;;;;;;;;;6237274;28;20300;-76
2023/05/21 08:39:03;;;;;;;1.40;1.40;;;;;;;;;;6222664;28;20324;-76
2023/05/21 08:42:24;;;;;;;2.53;1.80;;;;;;;;;;6203922;28;20590;-77
2023/05/21 08:45:44;;;;;;;1.67;1.60;;;;;;;;;;6179900;28;20389;-78
2023/05/21 08:48:53;;;;;;;1.48;1.45;;;;;;;;;;6187842;28;20444;-77
2023/05/21 08:52:00;;;;;;;6.35;1.83;;;;;;;;;;6188149;28;20597;-78
2023/05/21 08:55:09;;;;;;;1.50;1.50;;;;;;;;;;6188695;28;20298;-77
2023/05/21 08:58:15;;;;;;;1.80;1.80;;;;;;;;;;6187261;28;20468;-78
2023/05/21 09:01:21;;;;;;;1.55;1.55;;;;;;;;;;6203499;28;20314;-79
2023/05/21 09:04:40;;;;;;;1.48;1.48;;;;;;;;;;6185474;28;20309;-77
2023/05/21 09:07:48;;;;;;;1.48;1.30;;;;;;;;;;6202651;28;20420;-77
2023/05/21 09:11:17;;;;;;;1.60;1.60;;;;;;;;;;6225812;28;20580;-77
2023/05/21 09:14:29;;;;;;;1.83;1.60;;;;;;;;;;6235564;28;20297;-77
2023/05/21 09:17:40;;;;;;;1.75;1.65;;;;;;;;;;6235665;28;20323;-78
2023/05/21 09:21:25;;;;;;;1.50;1.50;;;;;;;;;;6234247;28;20297;-77
2023/05/21 09:24:34;;;;;;;2.28;1.55;;;;;;;;;;6235185;28;20296;-77
2023/05/21 09:27:43;;;;;;;2.70;1.58;;;;;;;;;;6235864;28;20293;-77
2023/05/21 09:30:49;;;;;;;4.53;1.65;;;;;;;;;;6234490;28;20296;-78
2023/05/21 09:33:55;;;;;;;3.05;1.58;;;;;;;;;;6234472;28;20300;-78
2023/05/21 09:37:02;;;;;;;1.63;1.63;;;;;;;;;;6234777;28;20295;-77
2023/05/21 09:40:14;;;;;;;2.40;1.83;;;;;;;;;;6211435;28;20297;-77
2023/05/21 09:43:22;;;;;;;1.70;1.60;;;;;;;;;;6210385;28;20293;-78
2023/05/21 09:46:32;;;;;;;1.55;1.30;;;;;;;;;;6210470;28;20273;-76
2023/05/21 09:49:38;;;;;;;1.88;1.73;;;;;;;;;;6211149;28;20294;-77
2023/05/21 09:52:43;;;;;;;1.60;1.50;;;;;;;;;;6211594;28;20374;-77
2023/05/21 09:55:48;;;;;;;1.40;1.40;;;;;;;;;;6212166;28;20293;-76
2023/05/21 09:58:56;;;;;;;1.60;1.60;;;;;;;;;;6211648;28;20316;-78
2023/05/21 10:02:01;;;;;;;7.00;1.70;;;;;;;;;;6211824;28;20549;-78
2023/05/21 10:05:10;;;;;;;1.73;1.63;;;;;;;;;;6210308;28;20297;-78
2023/05/21 10:08:17;;;;;;;3.20;1.90;;;;;;;;;;6210035;28;20302;-77
2023/05/21 10:11:25;;;;;;;2.58;1.80;;;;;;;;;;6227339;28;20496;-77
2023/05/21 10:14:32;;;;;;;1.90;1.70;;;;;;;;;;6234062;28;20307;-76
2023/05/21 10:17:38;;;;;;;3.00;1.80;;;;;;;;;;6234728;28;20308;-77
2023/05/21 10:20:44;;;;;;;2.05;1.58;;;;;;;;;;6235238;28;20373;-76
2023/05/21 10:23:50;;;;;;;1.88;1.63;;;;;;;;;;6235681;28;20320;-76
2023/05/21 10:26:55;;;;;;;2.20;1.60;;;;;;;;;;6236621;28;20300;-76
2023/05/21 10:30:02;;;;;;;5.28;1.90;;;;;;;;;;6234554;28;20288;-76
2023/05/21 10:33:08;;;;;;;1.60;1.35;;;;;;;;;;6234342;28;20315;-76
2023/05/21 10:36:14;;;;;;;1.83;1.73;;;;;;;;;;6235311;28;20592;-75
2023/05/21 10:39:20;;;;;;;3.33;1.90;;;;;;;;;;6218375;28;20461;-76
2023/05/21 10:43:12;;;;;;;1.75;1.60;;;;;;;;;;6210805;28;20289;-76
2023/05/21 10:46:45;;;;;;;3.60;2.00;;;;;;;;;;6208388;28;20292;-77
2023/05/21 10:50:03;;;;;;;1.50;1.50;;;;;;;;;;6157201;28;20289;-76
2023/05/21 10:53:16;;;;;;;3.08;2.05;;;;;;;;;;6210680;28;20288;-76
2023/05/21 10:56:25;;;;;;;2.00;1.95;;;;;;;;;;6210199;28;20584;-75
2023/05/21 10:59:40;;;;;;;3.20;2.08;;;;;;;;;;6208329;28;20297;-76
2023/05/21 11:02:47;;;;;;;3.83;3.50;;;;;;;;;;6210153;28;20296;-75
2023/05/21 11:05:54;;;;;;;4.07;3.88;;;;;;;;;;6210691;28;20489;-76
2023/05/21 11:09:02;;;;;;;2.40;2.30;;;;;;;;;;6210462;28;20542;-77
2023/05/21 11:12:08;;;;;;;2.33;2.17;;;;;;;;;;6233587;28;20324;-77
2023/05/21 11:15:16;;;;;;;2.03;1.92;;;;;;;;;;6234618;28;20305;-75
2023/05/21 11:18:23;;;;;;;4.07;2.10;;;;;;;;;;6234279;28;20296;-75
2023/05/21 11:21:30;;;;;;;5.05;2.22;;;;;;;;;;6234502;28;20289;-77
2023/05/21 11:24:38;;;;;;;2.40;2.20;;;;;;;;;;6234128;28;20296;-75
2023/05/21 11:27:44;;;;;;;1.80;1.80;;;;;;;;;;6234014;28;20296;-74
2023/05/21 11:31:22;;;;;;;2.45;1.70;;;;;;;;;;6234425;28;20304;-75
2023/05/21 11:34:38;;;;;;;3.22;1.73;;;;;;;;;;6232718;28;20393;-76
2023/05/21 11:37:45;;;;;;;3.63;1.85;;;;;;;;;;6230905;28;20285;-75
2023/05/21 11:40:53;;;;;;;2.22;2.03;;;;;;;;;;6209392;28;20297;-75
2023/05/21 11:44:01;;;;;;;2.05;1.95;;;;;;;;;;6209663;28;20302;-75
2023/05/21 11:47:07;;;;;;;2.90;1.70;;;;;;;;;;6210453;28;20565;-76
2023/05/21 11:50:15;;;;;;;2.50;2.00;;;;;;;;;;6209982;28;20605;-76
2023/05/21 11:53:21;;;;;;;1.83;1.73;;;;;;;;;;6210033;28;20588;-77
2023/05/21 11:56:26;;;;;;;1.63;1.63;;;;;;;;;;6208726;28;20305;-75
2023/05/21 11:59:32;;;;;;;4.90;2.05;;;;;;;;;;6213364;28;20293;-75
2023/05/21 12:02:37;;;;;;;1.73;1.63;;;;;;;;;;6215402;28;20596;-77
2023/05/21 12:05:47;;;;;;;2.00;2.00;;;;;;;;;;6216777;28;20305;-75
2023/05/21 12:08:57;;;;;;;1.85;1.70;;;;;;;;;;6214515;28;20293;-75
2023/05/21 12:12:04;;;;;;;1.77;1.77;;;;;;;;;;6235756;28;20391;-76
2023/05/21 12:15:12;;;;;;;1.80;1.80;;;;;;;;;;6238331;28;20300;-75
2023/05/21 12:18:17;;;;;;;1.92;1.90;;;;;;;;;;6238373;28;20292;-73
2023/05/21 12:21:23;;;;;;;1.70;1.60;;;;;;;;;;6238764;28;20475;-75
2023/05/21 12:24:28;;;;;;;3.20;1.77;;;;;;;;;;6237827;28;20605;-76
2023/05/21 12:27:35;;;;;;;2.15;2.00;;;;;;;;;;6237771;28;20292;-74
2023/05/21 12:30:40;;;;;;;4.57;2.10;;;;;;;;;;6238097;28;20300;-76
2023/05/21 12:33:48;;;;;;;3.30;2.00;;;;;;;;;;6237862;28;20296;-75
2023/05/21 12:36:54;;;;;;;1.80;1.80;;;;;;;;;;6238436;28;20284;-74
2023/05/21 12:40:00;;;;;;;3.80;1.98;;;;;;;;;;6238131;28;20308;-76
2023/05/21 12:43:06;;;;;;;1.85;1.73;;;;;;;;;;6237838;28;20381;-76
2023/05/21 12:46:13;;;;;;;6.68;1.65;;;;;;;;;;6238290;28;20296;-75
2023/05/21 12:49:32;;;;;;;2.13;1.90;;;;;;;;;;6237244;28;20300;-76
2023/05/21 12:52:41;;;;;;;2.10;1.90;;;;;;;;;;6237208;28;20272;-76
2023/05/21 12:55:47;;;;;;;1.98;1.88;;;;;;;;;;6236648;28;20465;-76
2023/05/21 12:58:53;;;;;;;2.80;1.88;;;;;;;;;;6237316;28;20292;-77
2023/05/21 13:01:58;;;;;;;7.40;2.00;;;;;;;;;;6237607;28;20387;-76
2023/05/21 13:05:05;;;;;;;2.08;1.77;;;;;;;;;;6236624;28;20297;-75
2023/05/21 13:08:14;;;;;;;2.22;1.92;;;;;;;;;;6237150;28;20288;-75
2023/05/21 13:11:20;;;;;;;4.18;1.77;;;;;;;;;;6220628;28;20290;-75
2023/05/21 13:14:25;;;;;;;4.78;2.40;;;;;;;;;;6212737;28;20305;-77
2023/05/21 13:17:30;;;;;;;4.03;2.00;;;;;;;;;;6213037;28;20293;-76
2023/05/21 13:20:36;;;;;;;6.78;1.80;;;;;;;;;;6211536;28;20320;-76
2023/05/21 13:23:43;;;;;;;2.97;1.98;;;;;;;;;;6213082;28;20312;-76
2023/05/21 13:26:48;;;;;;;2.05;1.95;;;;;;;;;;6213465;28;20297;-77
2023/05/21 13:29:53;;;;;;;5.68;2.15;;;;;;;;;;6212485;28;20301;-76
2023/05/21 13:32:58;;;;;;;5.07;1.90;;;;;;;;;;6212312;28;20302;-76
2023/05/21 13:36:04;;;;;;;5.45;2.50;;;;;;;;;;6212646;28;20297;-77
2023/05/21 13:39:11;;;;;;;49.80;44.28;;;;;;;;;;6226996;28;20580;-76
2023/05/21 13:42:18;;;;;;;16.58;10.48;;;;;;;;;;6236898;28;20296;-75
2023/05/21 13:45:27;;;;;;;4.18;2.72;;;;;;;;;;6236375;28;20316;-76
2023/05/21 13:48:33;;;;;;;24.58;15.63;;;;;;;;;;6236326;28;20533;-77
2023/05/21 13:51:38;;;;;;;5.38;2.55;;;;;;;;;;6236835;28;20588;-76
2023/05/21 13:54:45;;;;;;;3.97;3.53;;;;;;;;;;6235677;28;20300;-75
2023/05/21 13:57:50;;;;;;;2.60;2.40;;;;;;;;;;6235662;28;20301;-76
2023/05/21 14:00:55;;;;;;;4.57;2.10;;;;;;;;;;6236164;28;20299;-75
2023/05/21 14:04:03;;;;;;;2.13;2.03;;;;;;;;;;6235309;28;20493;-76
2023/05/21 14:07:10;;;;;;;3.53;2.20;;;;;;;;;;6236040;28;20299;-76
2023/05/21 14:10:17;;;;;;;5.10;2.13;;;;;;;;;;6228946;28;20604;-76
2023/05/21 14:13:22;;;;;;;2.25;2.13;;;;;;;;;;6211100;28;20494;-76
2023/05/21 14:16:28;;;;;;;4.63;2.33;;;;;;;;;;6210978;28;20265;-75
2023/05/21 14:19:33;;;;;;;2.65;2.45;;;;;;;;;;6211066;28;20301;-76
2023/05/21 14:22:38;;;;;;;2.92;2.70;;;;;;;;;;6211008;28;20517;-76
2023/05/21 14:25:45;;;;;;;3.05;2.30;;;;;;;;;;6210318;28;20316;-77
2023/05/21 14:28:50;;;;;;;5.45;2.08;;;;;;;;;;6211142;28;20306;-76
2023/05/21 14:31:55;;;;;;;5.45;3.35;;;;;;;;;;6211294;28;20289;-76
2023/05/21 14:35:01;;;;;;;4.00;2.10;;;;;;;;;;6209141;28;20473;-76
2023/05/21 14:38:06;;;;;;;2.05;1.95;;;;;;;;;;6216484;28;20379;-75
2023/05/21 14:41:13;;;;;;;2.40;2.30;;;;;;;;;;6235460;28;20330;-75
2023/05/21 14:44:18;;;;;;;3.03;1.90;;;;;;;;;;6234650;28;20589;-77
2023/05/21 14:47:24;;;;;;;3.80;2.55;;;;;;;;;;6235006;28;20300;-76
2023/05/21 14:50:29;;;;;;;2.75;2.20;;;;;;;;;;6234515;28;20301;-77
2023/05/21 14:53:34;;;;;;;4.30;2.50;;;;;;;;;;6234820;28;20292;-78
2023/05/21 14:56:40;;;;;;;4.35;2.28;;;;;;;;;;6235314;28;20584;-77
2023/05/21 14:59:45;;;;;;;2.95;2.83;;;;;;;;;;6234056;28;20364;-74
2023/05/21 15:02:50;;;;;;;2.97;2.78;;;;;;;;;;6234127;28;20304;-76
2023/05/21 15:05:57;;;;;;;2.47;2.30;;;;;;;;;;6233944;28;20588;-76
2023/05/21 15:09:03;;;;;;;3.83;2.45;;;;;;;;;;6234427;28;20423;-78
2023/05/21 15:12:09;;;;;;;3.63;3.05;;;;;;;;;;6212327;28;20292;-77
2023/05/21 15:15:15;;;;;;;4.90;2.95;;;;;;;;;;6210103;28;20584;-77
2023/05/21 15:18:21;;;;;;;2.67;2.53;;;;;;;;;;6211865;28;20293;-77
2023/05/21 15:21:26;;;;;;;6.90;2.35;;;;;;;;;;6213541;28;20304;-76
2023/05/21 15:24:32;;;;;;;2.17;2.08;;;;;;;;;;6209963;28;20610;-76
2023/05/21 15:27:38;;;;;;;2.28;2.20;;;;;;;;;;6209693;28;20597;-77
2023/05/21 15:30:43;;;;;;;3.78;2.10;;;;;;;;;;6209137;28;20300;-76
2023/05/21 15:33:49;;;;;;;5.57;1.73;;;;;;;;;;6212012;28;20479;-77
2023/05/21 15:36:54;;;;;;;5.72;2.13;;;;;;;;;;6215810;28;20580;-76
2023/05/21 15:39:59;;;;;;;5.28;1.90;;;;;;;;;;6239226;28;20312;-77
2023/05/21 15:43:06;;;;;;;2.10;2.00;;;;;;;;;;6244807;28;20316;-76
2023/05/21 15:46:11;;;;;;;1.80;1.77;;;;;;;;;;6245238;28;20292;-77
2023/05/21 15:49:16;;;;;;;2.65;1.50;;;;;;;;;;6245267;28;20335;-77
2023/05/21 15:52:21;;;;;;;4.75;1.90;;;;;;;;;;6239801;28;20431;-77
2023/05/21 15:55:26;;;;;;;4.85;1.98;;;;;;;;;;6237092;28;20396;-75
2023/05/21 15:58:33;;;;;;;2.58;2.20;;;;;;;;;;6238593;28;20314;-76
2023/05/21 16:01:38;;;;;;;4.60;1.90;;;;;;;;;;6237472;28;20268;-74
2023/05/21 16:04:44;;;;;;;4.22;1.95;;;;;;;;;;6238548;28;20292;-75
2023/05/21 16:07:49;;;;;;;8.18;2.20;;;;;;;;;;6238160;28;20304;-75
2023/05/21 16:10:54;;;;;;;3.15;2.35;;;;;;;;;;6226937;28;20301;-75
2023/05/21 16:14:00;;;;;;;8.07;6.20;;;;;;;;;;6213537;28;20297;-75
2023/05/21 16:17:06;;;;;;;2.53;2.33;;;;;;;;;;6214051;28;20602;-74
2023/05/21 16:20:13;;;;;;;3.40;2.95;;;;;;;;;;6213407;28;20297;-74
2023/05/21 16:23:18;;;;;;;6.13;2.30;;;;;;;;;;6213343;28;20309;-74
2023/05/21 16:26:23;;;;;;;3.42;2.00;;;;;;;;;;6212677;28;20437;-74
2023/05/21 16:29:29;;;;;;;2.10;2.10;;;;;;;;;;6212028;28;20292;-75
2023/05/21 16:32:34;;;;;;;4.82;2.20;;;;;;;;;;6213376;28;20285;-74
2023/05/21 16:35:39;;;;;;;3.53;1.90;;;;;;;;;;6211117;28;20368;-73
2023/05/21 16:38:44;;;;;;;2.58;2.10;;;;;;;;;;6223797;28;20601;-76
2023/05/21 16:41:49;;;;;;;4.75;2.10;;;;;;;;;;6236002;28;20588;-76
2023/05/21 16:44:56;;;;;;;3.70;2.45;;;;;;;;;;6236357;28;20581;-76
2023/05/21 16:48:01;;;;;;;3.50;1.90;;;;;;;;;;6236506;28;20296;-75
2023/05/21 16:51:06;;;;;;;5.15;1.90;;;;;;;;;;6237233;28;20479;-75
2023/05/21 16:54:12;;;;;;;2.20;2.10;;;;;;;;;;6236459;28;20293;-75
2023/05/21 16:57:17;;;;;;;1.88;1.75;;;;;;;;;;6238219;28;20296;-77
2023/05/21 17:00:24;;;;;;;2.58;1.83;;;;;;;;;;6236009;28;20332;-76
2023/05/21 17:03:30;;;;;;;5.65;2.38;;;;;;;;;;6236377;28;20284;-77
2023/05/21 17:06:35;;;;;;;2.10;1.90;;;;;;;;;;6237220;28;20296;-76
2023/05/21 17:09:40;;;;;;;3.67;2.30;;;;;;;;;;6234907;28;20455;-77
2023/05/21 17:12:45;;;;;;;2.15;1.92;;;;;;;;;;6212526;28;20301;-76
2023/05/21 17:15:52;;;;;;;2.63;2.30;;;;;;;;;;6219332;28;20293;-75
2023/05/21 17:18:57;;;;;;;6.78;2.40;;;;;;;;;;6213224;28;20322;-77
2023/05/21 17:22:03;;;;;;;5.93;2.22;;;;;;;;;;6213423;28;20558;-77
2023/05/21 17:25:09;;;;;;;5.68;2.22;;;;;;;;;;6212539;28;20301;-78
2023/05/21 17:28:14;;;;;;;7.72;2.30;;;;;;;;;;6212674;28;20292;-77
2023/05/21 17:31:21;;;;;;;2.67;2.17;;;;;;;;;;6212895;28;20289;-78
2023/05/21 17:34:28;;;;;;;2.85;2.30;;;;;;;;;;6211745;28;20310;-79
2023/05/21 17:37:33;;;;;;;4.35;2.50;;;;;;;;;;6214128;28;20316;-76
2023/05/21 17:40:38;;;;;;;2.00;2.00;;;;;;;;;;6235924;28;20492;-78
2023/05/21 17:43:43;;;;;;;2.30;2.00;;;;;;;;;;6235916;28;20296;-76
2023/05/21 17:46:51;;;;;;;3.15;1.90;;;;;;;;;;6236823;28;20308;-77
2023/05/21 17:49:56;;;;;;;1.90;1.90;;;;;;;;;;6235904;28;20288;-75
2023/05/21 17:53:02;;;;;;;6.18;2.10;;;;;;;;;;6236081;28;20293;-76
2023/05/21 17:56:10;;;;;;;2.10;2.00;;;;;;;;;;6235928;28;20308;-76
2023/05/21 17:59:15;;;;;;;2.30;2.20;;;;;;;;;;6236541;28;20305;-77
2023/05/21 18:02:23;;;;;;;3.92;2.40;;;;;;;;;;6236140;28;20296;-77
2023/05/21 18:05:28;;;;;;;3.00;2.10;;;;;;;;;;6233709;28;20486;-74
2023/05/21 18:08:33;;;;;;;2.50;2.30;;;;;;;;;;6236124;28;20288;-76
2023/05/21 18:11:38;;;;;;;3.83;2.00;;;;;;;;;;6219036;28;20293;-76
2023/05/21 18:14:43;;;;;;;2.10;1.90;;;;;;;;;;6211963;28;20296;-77
2023/05/21 18:17:50;;;;;;;1.88;1.77;;;;;;;;;;6211989;28;20288;-80
2023/05/21 18:20:57;;;;;;;2.20;1.98;;;;;;;;;;6212057;28;20288;-77
2023/05/21 18:24:03;;;;;;;1.50;1.40;;;;;;;;;;6211446;28;20472;-76
2023/05/21 18:27:08;;;;;;;7.43;1.95;;;;;;;;;;6212297;28;20590;-76
2023/05/21 18:30:14;;;;;;;2.30;2.08;;;;;;;;;;6211795;28;20324;-77
2023/05/21 18:33:20;;;;;;;2.15;2.00;;;;;;;;;;6211856;28;20302;-76
2023/05/21 18:36:25;;;;;;;2.15;1.73;;;;;;;;;;6212830;28;20297;-76
2023/05/21 18:39:30;;;;;;;2.72;2.00;;;;;;;;;;6229295;28;20584;-78
2023/05/21 18:42:35;;;;;;;4.70;1.80;;;;;;;;;;6236625;28;20296;-77